sensor_id;sensor_type;location;lat;lon;timestamp;temperature;humidity
63325;SHT31;49451;52.390;13.028;2023-07-24T03:15:18;20.08;75.73
63325;SHT31;49451;52.390;13.028;2023-07-24T03:28:27;20.09;76.47
63325;SHT31;49451;52.390;13.028;2023-07-24T03:43:48;20.17;76.74
63325;SHT31;49451;52.390;13.028;2023-07-24T03:46:13;20.12;76.98
63325;SHT31;49451;52.390;13.028;2023-07-24T03:48:39;20.18;76.85
63325;SHT31;49451;52.390;13.028;2023-07-24T03:51:04;20.11;77.19
63325;SHT31;49451;52.390;13.028;2023-07-24T03:53:30;20.17;77.15
63325;SHT31;49451;52.390;13.028;2023-07-24T03:55:55;20.14;77.33
63325;SHT31;49451;52.390;13.028;2023-07-24T03:58:20;20.12;77.54
63325;SHT31;49451;52.390;13.028;2023-07-24T04:00:46;20.19;77.31
63325;SHT31;49451;52.390;13.028;2023-07-24T04:03:11;20.21;77.28
63325;SHT31;49451;52.390;13.028;2023-07-24T04:05:37;20.24;77.29
63325;SHT31;49451;52.390;13.028;2023-07-24T04:08:02;20.29;76.98
63325;SHT31;49451;52.390;13.028;2023-07-24T04:10:28;20.28;76.99
63325;SHT31;49451;52.390;13.028;2023-07-24T04:12:54;20.26;77.21
63325;SHT31;49451;52.390;13.028;2023-07-24T04:15:19;20.40;76.95
63325;SHT31;49451;52.390;13.028;2023-07-24T04:17:45;20.45;76.86
63325;SHT31;49451;52.390;13.028;2023-07-24T04:20:10;20.49;76.71
63325;SHT31;49451;52.390;13.028;2023-07-24T04:25:33;20.60;76.49
63325;SHT31;49451;52.390;13.028;2023-07-24T04:28:12;20.57;76.69
63325;SHT31;49451;52.390;13.028;2023-07-24T04:33:50;20.50;77.05
63325;SHT31;49451;52.390;13.028;2023-07-24T04:40:23;20.55;77.16
63325;SHT31;49451;52.390;13.028;2023-07-24T04:44:11;20.73;76.54
63325;SHT31;49451;52.390;13.028;2023-07-24T04:46:47;20.70;76.32
63325;SHT31;49451;52.390;13.028;2023-07-24T04:49:12;20.72;76.72
63325;SHT31;49451;52.390;13.028;2023-07-24T04:51:38;20.74;76.45
63325;SHT31;49451;52.390;13.028;2023-07-24T04:54:03;20.72;76.80
63325;SHT31;49451;52.390;13.028;2023-07-24T04:56:28;20.70;76.73
63325;SHT31;49451;52.390;13.028;2023-07-24T04:58:54;20.81;76.46
63325;SHT31;49451;52.390;13.028;2023-07-24T05:01:19;20.83;76.57
63325;SHT31;49451;52.390;13.028;2023-07-24T05:03:44;20.81;76.60
63325;SHT31;49451;52.390;13.028;2023-07-24T05:06:10;20.80;76.61
63325;SHT31;49451;52.390;13.028;2023-07-24T05:08:35;20.84;76.77
63325;SHT31;49451;52.390;13.028;2023-07-24T05:11:00;20.90;76.52
63325;SHT31;49451;52.390;13.028;2023-07-24T05:13:26;20.85;76.72
63325;SHT31;49451;52.390;13.028;2023-07-24T05:15:52;20.84;76.55
63325;SHT31;49451;52.390;13.028;2023-07-24T05:18:17;20.85;76.67
63325;SHT31;49451;52.390;13.028;2023-07-24T05:20:44;21.21;75.85
63325;SHT31;49451;52.390;13.028;2023-07-24T05:23:11;21.27;75.47
63325;SHT31;49451;52.390;13.028;2023-07-24T05:25:36;21.18;75.49
63325;SHT31;49451;52.390;13.028;2023-07-24T05:28:01;21.04;76.21
63325;SHT31;49451;52.390;13.028;2023-07-24T05:30:27;20.93;76.15
63325;SHT31;49451;52.390;13.028;2023-07-24T05:32:53;21.19;75.78
63325;SHT31;49451;52.390;13.028;2023-07-24T05:35:18;21.41;74.75
63325;SHT31;49451;52.390;13.028;2023-07-24T05:37:44;21.46;75.27
63325;SHT31;49451;52.390;13.028;2023-07-24T05:40:09;21.63;74.07
63325;SHT31;49451;52.390;13.028;2023-07-24T05:42:34;21.76;74.45
63325;SHT31;49451;52.390;13.028;2023-07-24T05:45:07;21.73;73.28
63325;SHT31;49451;52.390;13.028;2023-07-24T05:47:33;21.94;72.97
63325;SHT31;49451;52.390;13.028;2023-07-24T05:49:58;22.05;72.64
63325;SHT31;49451;52.390;13.028;2023-07-24T05:52:23;22.27;72.14
63325;SHT31;49451;52.390;13.028;2023-07-24T05:54:49;22.30;72.51
63325;SHT31;49451;52.390;13.028;2023-07-24T05:57:14;22.55;71.54
63325;SHT31;49451;52.390;13.028;2023-07-24T05:59:39;22.45;70.92
63325;SHT31;49451;52.390;13.028;2023-07-24T06:02:05;22.45;71.62
63325;SHT31;49451;52.390;13.028;2023-07-24T06:04:31;22.51;70.68
63325;SHT31;49451;52.390;13.028;2023-07-24T06:06:56;22.59;70.59
63325;SHT31;49451;52.390;13.028;2023-07-24T06:09:21;22.52;69.87
63325;SHT31;49451;52.390;13.028;2023-07-24T06:11:47;22.77;69.71
63325;SHT31;49451;52.390;13.028;2023-07-24T06:14:13;22.65;69.99
63325;SHT31;49451;52.390;13.028;2023-07-24T06:16:39;23.02;69.18
63325;SHT31;49451;52.390;13.028;2023-07-24T06:19:04;22.85;68.42
63325;SHT31;49451;52.390;13.028;2023-07-24T06:21:30;23.25;67.89
63325;SHT31;49451;52.390;13.028;2023-07-24T06:23:55;23.69;67.93
63325;SHT31;49451;52.390;13.028;2023-07-24T06:26:21;23.73;66.46
63325;SHT31;49451;52.390;13.028;2023-07-24T06:28:46;24.30;65.38
63325;SHT31;49451;52.390;13.028;2023-07-24T06:31:12;24.27;65.65
63325;SHT31;49451;52.390;13.028;2023-07-24T06:33:37;23.69;66.42
63325;SHT31;49451;52.390;13.028;2023-07-24T06:36:03;23.83;65.65
63325;SHT31;49451;52.390;13.028;2023-07-24T06:38:28;23.59;66.07
63325;SHT31;49451;52.390;13.028;2023-07-24T06:40:53;23.96;65.71
63325;SHT31;49451;52.390;13.028;2023-07-24T06:43:19;24.05;65.02
63325;SHT31;49451;52.390;13.028;2023-07-24T06:45:44;24.40;64.81
63325;SHT31;49451;52.390;13.028;2023-07-24T06:48:09;24.85;63.89
63325;SHT31;49451;52.390;13.028;2023-07-24T06:50:35;24.81;64.30
63325;SHT31;49451;52.390;13.028;2023-07-24T06:53:00;24.45;63.95
63325;SHT31;49451;52.390;13.028;2023-07-24T06:55:25;24.96;63.31
63325;SHT31;49451;52.390;13.028;2023-07-24T06:57:51;24.18;63.58
63325;SHT31;49451;52.390;13.028;2023-07-24T07:00:17;24.45;63.12
63325;SHT31;49451;52.390;13.028;2023-07-24T07:02:42;24.95;62.32
63325;SHT31;49451;52.390;13.028;2023-07-24T07:05:07;24.54;62.91
63325;SHT31;49451;52.390;13.028;2023-07-24T07:07:33;25.06;61.81
63325;SHT31;49451;52.390;13.028;2023-07-24T07:09:58;25.70;61.35
63325;SHT31;49451;52.390;13.028;2023-07-24T07:12:24;24.23;63.76
63325;SHT31;49451;52.390;13.028;2023-07-24T07:14:49;24.30;64.28
63325;SHT31;49451;52.390;13.028;2023-07-24T07:17:15;23.85;64.80
63325;SHT31;49451;52.390;13.028;2023-07-24T07:19:40;23.90;64.43
63325;SHT31;49451;52.390;13.028;2023-07-24T07:22:05;23.98;64.01
63325;SHT31;49451;52.390;13.028;2023-07-24T07:24:31;24.28;62.69
63325;SHT31;49451;52.390;13.028;2023-07-24T07:26:56;24.69;62.08
63325;SHT31;49451;52.390;13.028;2023-07-24T07:29:22;25.30;60.73
63325;SHT31;49451;52.390;13.028;2023-07-24T07:31:47;26.02;60.18
63325;SHT31;49451;52.390;13.028;2023-07-24T07:34:12;26.41;58.42
63325;SHT31;49451;52.390;13.028;2023-07-24T07:36:38;25.94;58.86
63325;SHT31;49451;52.390;13.028;2023-07-24T07:39:03;25.53;58.97
63325;SHT31;49451;52.390;13.028;2023-07-24T07:41:29;25.37;59.15
63325;SHT31;49451;52.390;13.028;2023-07-24T07:43:54;25.85;58.94
63325;SHT31;49451;52.390;13.028;2023-07-24T07:46:20;25.64;59.05
63325;SHT31;49451;52.390;13.028;2023-07-24T07:48:45;25.36;59.56
63325;SHT31;49451;52.390;13.028;2023-07-24T07:51:14;25.38;60.62
63325;SHT31;49451;52.390;13.028;2023-07-24T07:53:39;25.44;60.17
63325;SHT31;49451;52.390;13.028;2023-07-24T07:56:05;25.10;61.11
63325;SHT31;49451;52.390;13.028;2023-07-24T07:58:30;25.58;59.98
63325;SHT31;49451;52.390;13.028;2023-07-24T08:00:56;25.86;60.19
63325;SHT31;49451;52.390;13.028;2023-07-24T08:03:21;25.86;59.03
63325;SHT31;49451;52.390;13.028;2023-07-24T08:05:47;24.93;60.49
63325;SHT31;49451;52.390;13.028;2023-07-24T08:08:12;25.15;60.74
63325;SHT31;49451;52.390;13.028;2023-07-24T08:10:38;24.44;61.86
63325;SHT31;49451;52.390;13.028;2023-07-24T08:13:03;24.45;62.18
63325;SHT31;49451;52.390;13.028;2023-07-24T08:15:29;24.71;60.64
63325;SHT31;49451;52.390;13.028;2023-07-24T08:17:54;24.64;60.15
63325;SHT31;49451;52.390;13.028;2023-07-24T08:20:19;24.93;59.72
63325;SHT31;49451;52.390;13.028;2023-07-24T08:22:45;24.75;59.40
63325;SHT31;49451;52.390;13.028;2023-07-24T08:25:10;24.89;60.09
63325;SHT31;49451;52.390;13.028;2023-07-24T08:27:35;25.41;60.82
63325;SHT31;49451;52.390;13.028;2023-07-24T08:30:01;26.20;59.13
63325;SHT31;49451;52.390;13.028;2023-07-24T08:32:26;26.08;59.02
63325;SHT31;49451;52.390;13.028;2023-07-24T08:34:51;26.43;58.23
63325;SHT31;49451;52.390;13.028;2023-07-24T08:37:17;26.37;58.10
63325;SHT31;49451;52.390;13.028;2023-07-24T08:39:42;26.30;58.72
63325;SHT31;49451;52.390;13.028;2023-07-24T08:42:11;26.83;58.18
63325;SHT31;49451;52.390;13.028;2023-07-24T08:44:37;26.43;57.01
63325;SHT31;49451;52.390;13.028;2023-07-24T08:47:03;26.91;56.61
63325;SHT31;49451;52.390;13.028;2023-07-24T08:49:29;27.08;55.65
63325;SHT31;49451;52.390;13.028;2023-07-24T08:51:56;26.96;56.81
63325;SHT31;49451;52.390;13.028;2023-07-24T08:54:22;25.78;58.54
63325;SHT31;49451;52.390;13.028;2023-07-24T08:56:50;25.05;60.34
63325;SHT31;49451;52.390;13.028;2023-07-24T08:59:17;25.78;59.80
63325;SHT31;49451;52.390;13.028;2023-07-24T09:01:42;26.03;58.77
63325;SHT31;49451;52.390;13.028;2023-07-24T09:04:08;26.74;58.22
63325;SHT31;49451;52.390;13.028;2023-07-24T09:06:33;27.61;54.43
63325;SHT31;49451;52.390;13.028;2023-07-24T09:08:59;27.38;53.30
63325;SHT31;49451;52.390;13.028;2023-07-24T09:11:24;26.94;55.52
63325;SHT31;49451;52.390;13.028;2023-07-24T09:13:50;27.45;55.35
63325;SHT31;49451;52.390;13.028;2023-07-24T09:16:26;27.42;54.43
63325;SHT31;49451;52.390;13.028;2023-07-24T09:18:52;27.53;55.32
63325;SHT31;49451;52.390;13.028;2023-07-24T09:21:29;27.26;54.42
63325;SHT31;49451;52.390;13.028;2023-07-24T09:23:54;27.23;54.38
63325;SHT31;49451;52.390;13.028;2023-07-24T09:26:20;27.26;54.24
63325;SHT31;49451;52.390;13.028;2023-07-24T09:28:54;27.80;53.18
63325;SHT31;49451;52.390;13.028;2023-07-24T09:31:20;28.35;52.35
63325;SHT31;49451;52.390;13.028;2023-07-24T09:33:45;28.45;51.79
63325;SHT31;49451;52.390;13.028;2023-07-24T09:36:12;28.69;52.04
63325;SHT31;49451;52.390;13.028;2023-07-24T09:38:38;28.28;52.08
63325;SHT31;49451;52.390;13.028;2023-07-24T09:41:05;28.19;52.31
63325;SHT31;49451;52.390;13.028;2023-07-24T09:43:31;28.94;50.74
63325;SHT31;49451;52.390;13.028;2023-07-24T09:45:57;29.58;48.92
63325;SHT31;49451;52.390;13.028;2023-07-24T09:48:24;29.51;49.48
63325;SHT31;49451;52.390;13.028;2023-07-24T09:50:53;29.72;48.13
63325;SHT31;49451;52.390;13.028;2023-07-24T09:56:00;29.83;47.60
63325;SHT31;49451;52.390;13.028;2023-07-24T09:58:26;31.42;45.80
63325;SHT31;49451;52.390;13.028;2023-07-24T10:00:54;30.23;46.32
63325;SHT31;49451;52.390;13.028;2023-07-24T10:03:21;30.31;46.92
63325;SHT31;49451;52.390;13.028;2023-07-24T10:05:47;29.61;47.70
63325;SHT31;49451;52.390;13.028;2023-07-24T10:08:18;31.64;44.92
63325;SHT31;49451;52.390;13.028;2023-07-24T10:10:44;31.57;43.68
63325;SHT31;49451;52.390;13.028;2023-07-24T10:13:11;30.00;46.48
63325;SHT31;49451;52.390;13.028;2023-07-24T10:15:39;29.46;46.74
63325;SHT31;49451;52.390;13.028;2023-07-24T10:18:09;28.77;47.96
63325;SHT31;49451;52.390;13.028;2023-07-24T10:20:36;29.24;46.89
63325;SHT31;49451;52.390;13.028;2023-07-24T10:23:03;30.21;45.44
63325;SHT31;49451;52.390;13.028;2023-07-24T10:25:32;31.34;43.55
63325;SHT31;49451;52.390;13.028;2023-07-24T10:28:02;30.96;43.54
63325;SHT31;49451;52.390;13.028;2023-07-24T10:31:04;30.30;44.15
63325;SHT31;49451;52.390;13.028;2023-07-24T10:33:34;29.18;45.63
63325;SHT31;49451;52.390;13.028;2023-07-24T10:36:12;29.73;45.89
63325;SHT31;49451;52.390;13.028;2023-07-24T10:39:00;29.66;45.86
63325;SHT31;49451;52.390;13.028;2023-07-24T10:41:46;29.55;45.57
63325;SHT31;49451;52.390;13.028;2023-07-24T10:44:12;30.55;44.83
63325;SHT31;49451;52.390;13.028;2023-07-24T10:46:39;30.37;44.03
63325;SHT31;49451;52.390;13.028;2023-07-24T10:49:05;30.23;44.46
63325;SHT31;49451;52.390;13.028;2023-07-24T10:51:31;30.55;43.62
63325;SHT31;49451;52.390;13.028;2023-07-24T10:54:03;30.80;42.67
63325;SHT31;49451;52.390;13.028;2023-07-24T10:56:29;30.58;44.09
63325;SHT31;49451;52.390;13.028;2023-07-24T10:58:54;30.30;46.25
63325;SHT31;49451;52.390;13.028;2023-07-24T11:01:20;29.55;45.42
63325;SHT31;49451;52.390;13.028;2023-07-24T11:03:45;28.57;47.20
63325;SHT31;49451;52.390;13.028;2023-07-24T11:06:19;28.67;48.23
63325;SHT31;49451;52.390;13.028;2023-07-24T11:08:52;29.15;46.78
63325;SHT31;49451;52.390;13.028;2023-07-24T11:11:18;28.56;46.71
63325;SHT31;49451;52.390;13.028;2023-07-24T11:13:43;28.90;46.95
63325;SHT31;49451;52.390;13.028;2023-07-24T11:16:09;29.73;45.68
63325;SHT31;49451;52.390;13.028;2023-07-24T11:18:44;28.32;47.30
63325;SHT31;49451;52.390;13.028;2023-07-24T11:21:11;28.51;47.61
63325;SHT31;49451;52.390;13.028;2023-07-24T11:23:37;29.03;46.62
63325;SHT31;49451;52.390;13.028;2023-07-24T11:26:04;29.21;46.09
63325;SHT31;49451;52.390;13.028;2023-07-24T11:28:39;28.11;47.77
63325;SHT31;49451;52.390;13.028;2023-07-24T11:31:04;28.32;47.66
63325;SHT31;49451;52.390;13.028;2023-07-24T11:33:29;28.66;47.08
63325;SHT31;49451;52.390;13.028;2023-07-24T11:35:55;29.45;45.82
63325;SHT31;49451;52.390;13.028;2023-07-24T11:38:20;29.92;45.89
63325;SHT31;49451;52.390;13.028;2023-07-24T11:40:46;30.01;44.02
63325;SHT31;49451;52.390;13.028;2023-07-24T11:43:23;29.19;45.01
63325;SHT31;49451;52.390;13.028;2023-07-24T11:45:50;29.31;45.59
63325;SHT31;49451;52.390;13.028;2023-07-24T11:48:20;29.38;45.75
63325;SHT31;49451;52.390;13.028;2023-07-24T11:50:51;28.39;46.75
63325;SHT31;49451;52.390;13.028;2023-07-24T11:53:31;28.24;46.97
63325;SHT31;49451;52.390;13.028;2023-07-24T11:55:58;28.41;46.98
63325;SHT31;49451;52.390;13.028;2023-07-24T11:58:28;28.28;46.70
63325;SHT31;49451;52.390;13.028;2023-07-24T12:00:53;28.29;46.83
63325;SHT31;49451;52.390;13.028;2023-07-24T12:03:24;28.07;47.98
63325;SHT31;49451;52.390;13.028;2023-07-24T12:05:50;27.23;51.96
63325;SHT31;49451;52.390;13.028;2023-07-24T12:08:16;26.94;53.42
63325;SHT31;49451;52.390;13.028;2023-07-24T12:10:43;26.33;55.55
63325;SHT31;49451;52.390;13.028;2023-07-24T12:13:09;26.16;56.54
63325;SHT31;49451;52.390;13.028;2023-07-24T12:15:34;26.05;57.98
63325;SHT31;49451;52.390;13.028;2023-07-24T12:18:03;26.08;58.19
63325;SHT31;49451;52.390;13.028;2023-07-24T12:20:29;26.61;58.34
63325;SHT31;49451;52.390;13.028;2023-07-24T12:22:55;26.56;57.57
63325;SHT31;49451;52.390;13.028;2023-07-24T12:25:21;26.36;58.76
63325;SHT31;49451;52.390;13.028;2023-07-24T12:27:47;26.33;59.02
63325;SHT31;49451;52.390;13.028;2023-07-24T12:30:13;26.16;60.20
63325;SHT31;49451;52.390;13.028;2023-07-24T12:32:38;25.88;61.19
63325;SHT31;49451;52.390;13.028;2023-07-24T12:35:04;25.44;63.23
63325;SHT31;49451;52.390;13.028;2023-07-24T12:37:30;25.22;64.52
63325;SHT31;49451;52.390;13.028;2023-07-24T12:39:56;25.05;66.11
63325;SHT31;49451;52.390;13.028;2023-07-24T12:42:21;24.81;67.57
63325;SHT31;49451;52.390;13.028;2023-07-24T12:44:46;25.18;66.99
63325;SHT31;49451;52.390;13.028;2023-07-24T12:47:12;25.40;66.29
63325;SHT31;49451;52.390;13.028;2023-07-24T12:49:37;25.33;66.47
63325;SHT31;49451;52.390;13.028;2023-07-24T12:52:03;25.33;66.31
63325;SHT31;49451;52.390;13.028;2023-07-24T12:54:29;25.53;67.11
63325;SHT31;49451;52.390;13.028;2023-07-24T12:56:54;25.27;66.92
63325;SHT31;49451;52.390;13.028;2023-07-24T12:59:20;25.30;67.94
63325;SHT31;49451;52.390;13.028;2023-07-24T13:01:46;25.71;67.70
63325;SHT31;49451;52.390;13.028;2023-07-24T13:04:11;27.83;63.03
63325;SHT31;49451;52.390;13.028;2023-07-24T13:06:36;29.03;60.77
63325;SHT31;49451;52.390;13.028;2023-07-24T13:09:02;29.41;59.36
63325;SHT31;49451;52.390;13.028;2023-07-24T13:11:28;30.06;57.24
63325;SHT31;49451;52.390;13.028;2023-07-24T13:13:54;30.76;55.95
63325;SHT31;49451;52.390;13.028;2023-07-24T13:16:19;30.42;55.38
63325;SHT31;49451;52.390;13.028;2023-07-24T13:18:45;30.09;55.98
63325;SHT31;49451;52.390;13.028;2023-07-24T13:21:10;29.58;56.28
63325;SHT31;49451;52.390;13.028;2023-07-24T13:23:36;28.64;57.44
63325;SHT31;49451;52.390;13.028;2023-07-24T13:26:01;27.93;59.65
63325;SHT31;49451;52.390;13.028;2023-07-24T13:28:27;27.81;59.78
63325;SHT31;49451;52.390;13.028;2023-07-24T13:30:52;27.32;59.70
63325;SHT31;49451;52.390;13.028;2023-07-24T13:33:18;27.26;60.05
63325;SHT31;49451;52.390;13.028;2023-07-24T13:35:44;26.99;60.46
63325;SHT31;49451;52.390;13.028;2023-07-24T13:38:09;26.88;60.38
63325;SHT31;49451;52.390;13.028;2023-07-24T13:40:36;26.76;61.03
63325;SHT31;49451;52.390;13.028;2023-07-24T13:43:01;26.67;60.95
63325;SHT31;49451;52.390;13.028;2023-07-24T13:45:27;26.67;60.78
63325;SHT31;49451;52.390;13.028;2023-07-24T13:47:53;26.65;60.63
63325;SHT31;49451;52.390;13.028;2023-07-24T13:50:18;26.53;60.59
63325;SHT31;49451;52.390;13.028;2023-07-24T13:52:44;26.28;60.34
63325;SHT31;49451;52.390;13.028;2023-07-24T13:55:09;26.28;60.09
63325;SHT31;49451;52.390;13.028;2023-07-24T13:57:34;26.12;60.10
63325;SHT31;49451;52.390;13.028;2023-07-24T14:00:00;26.18;60.32
63325;SHT31;49451;52.390;13.028;2023-07-24T14:02:25;25.99;60.60
63325;SHT31;49451;52.390;13.028;2023-07-24T14:04:51;25.96;60.77
63325;SHT31;49451;52.390;13.028;2023-07-24T14:07:16;26.13;61.44
63325;SHT31;49451;52.390;13.028;2023-07-24T14:09:41;25.89;62.57
63325;SHT31;49451;52.390;13.028;2023-07-24T14:12:07;26.01;63.13
